»·PEaware :: XACAM KSBP-KAVX

XACAM :: KSBP-KAVX

FLIGHT INFORMATION

Flight Status: Arrived
Operator: Unknown
More flights by this operator :: More flights under this callsign
Pilot: Rafael C. (24230)
Aircraft: BEECH AIRCRAFT DEBONAIR BONANZA
(BE33)
More flights by this aircraft type
Origin: KSBP San Luis Co Regl
United States
Destination: KAVX Catalina
United States
More flights between these airports :: More routes between these airports
Route: RZS VTU V208 SXC
File this flight plan on PilotEdge
Remarks: SBAP39
Altitude:
(Current/Filed)
7,000ft
Speed:
(Current/Filed)
165kts
Departed: 03-Feb-20 12:27 PM
Arrived: 03-Feb-20 01:35 PM
Distance/Time
Traveled:
156nm/1:08
Distance/Time
To Go:
Arrived

Flight Plot

Page will automatically refresh every two minutes.


Map Options




Map Legend


Flown Route
Filed Route
Departure Airport
Arrival Airport
Navaid (VOR, NDB)
Fix

Horizontal Profiles

Position Reports

Time Latitude Longitude Heading Altitude Ground
Speed
03-Feb-20 12:07 35.238417 -120.640029 62 215ft 0kts
03-Feb-20 12:08 35.238417 -120.640029 62 215ft 0kts
03-Feb-20 12:09 35.238417 -120.640029 62 215ft 0kts
03-Feb-20 12:10 35.238417 -120.640029 62 215ft 0kts
03-Feb-20 12:11 35.238417 -120.640029 62 215ft 0kts
03-Feb-20 12:12 35.238417 -120.640029 62 215ft 0kts
03-Feb-20 12:13 35.238417 -120.640029 62 215ft 0kts
03-Feb-20 12:14 35.238417 -120.640029 62 215ft 0kts
03-Feb-20 12:15 35.238417 -120.640028 62 215ft 0kts
03-Feb-20 12:16 35.238417 -120.640028 62 215ft 0kts
03-Feb-20 12:17 35.238417 -120.640028 62 215ft 0kts
03-Feb-20 12:18 35.238417 -120.640028 62 215ft 0kts
03-Feb-20 12:19 35.238417 -120.640028 62 215ft 0kts
03-Feb-20 12:19 35.238417 -120.640028 62 215ft 0kts
03-Feb-20 12:21 35.238417 -120.640028 62 215ft 0kts
03-Feb-20 12:22 35.235835 -120.636467 123 215ft 23kts
03-Feb-20 12:22 35.233597 -120.632555 131 215ft 0kts
03-Feb-20 12:23 35.233177 -120.632361 209 216ft 0kts
03-Feb-20 12:25 35.233177 -120.632361 209 216ft 0kts
03-Feb-20 12:25 35.233177 -120.632361 209 216ft 0kts
03-Feb-20 12:26 35.234593 -120.636204 304 216ft 63kts
03-Feb-20 12:28 35.252832 -120.675883 299 1394ft 117kts
03-Feb-20 12:28 35.265231 -120.707609 301 2064ft 128kts
03-Feb-20 12:29 35.279731 -120.745971 303 2857ft 112kts
03-Feb-20 12:30 35.277213 -120.777615 209 3898ft 130kts
03-Feb-20 12:31 35.242520 -120.764957 152 4749ft 138kts
03-Feb-20 12:32 35.206436 -120.744680 153 5481ft 145kts
03-Feb-20 12:33 35.169122 -120.723870 152 6195ft 148kts
03-Feb-20 12:34 35.132691 -120.701419 131 6928ft 145kts
03-Feb-20 12:35 35.101180 -120.661338 123 7011ft 180kts
03-Feb-20 12:36 35.067776 -120.613042 122 7003ft 189kts
03-Feb-20 12:37 35.034091 -120.562495 122 6999ft 193kts
03-Feb-20 12:38 35.000374 -120.511319 121 7048ft 190kts
03-Feb-20 12:39 34.966958 -120.460312 121 7070ft 193kts
03-Feb-20 12:40 34.933440 -120.409232 121 7076ft 193kts
03-Feb-20 12:41 34.899616 -120.357870 122 7069ft 195kts
03-Feb-20 12:42 34.865126 -120.306278 121 7055ft 194kts
03-Feb-20 12:43 34.831628 -120.255579 122 7057ft 192kts
03-Feb-20 12:44 34.798008 -120.204815 121 7050ft 191kts
03-Feb-20 12:45 34.764591 -120.154196 122 7033ft 191kts
03-Feb-20 12:46 34.731150 -120.103660 122 7021ft 192kts
03-Feb-20 12:47 34.697530 -120.053009 122 7002ft 192kts
03-Feb-20 12:48 34.663877 -120.002359 121 6991ft 191kts
03-Feb-20 12:49 34.630526 -119.952225 122 6988ft 190kts
03-Feb-20 12:50 34.597339 -119.902389 122 6990ft 190kts
03-Feb-20 12:51 34.563989 -119.851960 121 6988ft 189kts
03-Feb-20 12:52 34.532772 -119.800611 119 6988ft 188kts
03-Feb-20 12:53 34.500440 -119.749798 123 6988ft 190kts
03-Feb-20 12:54 34.470196 -119.698088 114 6988ft 187kts
03-Feb-20 12:55 34.442082 -119.645214 115 6990ft 187kts
03-Feb-20 12:56 34.413587 -119.591915 115 6992ft 187kts
03-Feb-20 12:57 34.385185 -119.539082 115 6990ft 187kts
03-Feb-20 12:58 34.356822 -119.486191 115 6990ft 187kts
03-Feb-20 12:59 34.328354 -119.433421 115 6992ft 186kts
03-Feb-20 13:00 34.299789 -119.381138 116 6991ft 186kts
03-Feb-20 13:01 34.270527 -119.328659 118 6996ft 186kts
03-Feb-20 13:02 34.241728 -119.276854 117 6992ft 184kts
03-Feb-20 13:03 34.213154 -119.225419 118 6989ft 184kts
03-Feb-20 13:04 34.184377 -119.173673 118 6986ft 184kts
03-Feb-20 13:05 34.155826 -119.122291 118 6988ft 183kts
03-Feb-20 13:06 34.127596 -119.070756 117 6962ft 183kts
03-Feb-20 13:07 34.094087 -119.026147 164 6955ft 188kts
03-Feb-20 13:08 34.043751 -119.037948 187 6968ft 186kts
03-Feb-20 13:09 33.991860 -119.037291 174 6964ft 187kts
03-Feb-20 13:10 33.939989 -119.031178 175 6961ft 187kts
03-Feb-20 13:11 33.888066 -119.025267 175 6958ft 187kts
03-Feb-20 13:12 33.836243 -119.019951 175 6956ft 186kts
03-Feb-20 13:13 33.787148 -119.004948 134 6953ft 184kts
03-Feb-20 13:14 33.752295 -118.960481 126 6941ft 182kts
03-Feb-20 13:15 33.719549 -118.914449 125 6932ft 182kts
03-Feb-20 13:16 33.686742 -118.867343 124 6917ft 182kts
03-Feb-20 13:17 33.654687 -118.821237 126 7002ft 180kts
03-Feb-20 13:18 33.622310 -118.774650 125 6845ft 185kts
03-Feb-20 13:19 33.591823 -118.730639 124 6021ft 175kts
03-Feb-20 13:20 33.559704 -118.684467 127 5244ft 177kts
03-Feb-20 13:21 33.530588 -118.642458 126 4403ft 154kts
03-Feb-20 13:22 33.504102 -118.604383 124 4012ft 143kts
03-Feb-20 13:23 33.478509 -118.567477 125 4000ft 143kts
03-Feb-20 13:24 33.452502 -118.530313 125 4006ft 143kts
03-Feb-20 13:25 33.427512 -118.494587 125 4008ft 138kts
03-Feb-20 13:26 33.403203 -118.459795 126 4011ft 136kts
03-Feb-20 13:27 33.377204 -118.426470 140 3839ft 144kts
03-Feb-20 13:28 33.343842 -118.414069 229 3195ft 132kts
03-Feb-20 13:29 33.327172 -118.441330 301 2766ft 84kts
03-Feb-20 13:30 33.342124 -118.458649 322 2714ft 69kts
03-Feb-20 13:31 33.361759 -118.458053 14 2478ft 86kts
03-Feb-20 13:32 33.384818 -118.450546 29 2111ft 92kts
03-Feb-20 13:33 33.397890 -118.427677 38 1910ft 78kts
03-Feb-20 13:34 33.406669 -118.411902 150 1552ft 22kts
03-Feb-20 13:35 33.406031 -118.411304 133 1493ft 0kts
03-Feb-20 13:36 33.406031 -118.411304 133 1493ft 0kts

Navigation Log

Ident Type
Flight plan parsing failed, navigation log unavailable